Southold, NY (11971)

3:21 PM EDT on March 27, 2015 (GMT -0400)
Sleepy Hollow Southold | | Change Station
CLOSE
Current Station
Personal Weather Station
Location: Southold, NY
Elevation: 26 ft
Nearby Weather Stations

Elev 26 ft 41.05 °N, 72.43 °W | Updated 10 minutes ago

Rain
Rain
42.5 °F
Feels Like 42 °F
N
3.0
Wind Variable Wind from NW
Gusts 4.0 mph

Today
High -- | Low -- °F
--% Chance of Precip.
Yesterday
High -- | Low -- °F
Precip. -- in
6:41 AM 7:09 PM
First Quarter, 55% visible
Pressure 29.71 in
Visibility 10.0 miles
Clouds Scattered Clouds 1000 ft
Overcast 5000 ft
Windchill 42 °F
Dew Point 40 °F
Humidity 91%
Rainfall 0.09 in
Snow Depth Not available.
UV 2 out of 12
Pollen 3.40 out of 12
Air Quality Not available.
Flu Activity Not available.
METAR KHTO 271855Z 00000KT 10SM SCT010 OVC050 06/04 A2971

More Conditions Fewer Conditions

Pressure 29.71 in
Visibility 10.0 miles
Clouds Scattered Clouds 1000 ft
Overcast 5000 ft
Windchill 42 °F
Dew Point 40 °F
Humidity 91%
Rainfall 0.09 in
Snow Depth Not available.
UV 2 out of 12
Pollen 3.40 out of 12
Air Quality Not available.
Flu Activity Not available.
METAR KHTO 271855Z 00000KT 10SM SCT010 OVC050 06/04 A2971

More Conditions Fewer Conditions

10-Day Weather Forecast

Almanac

Astronomy

Mar. 27, 2015 Rise Set
Actual Time
Civil Twilight
Nautical Twilight
Astronomical Twilight
Moon
Length of Visible Light
Length of Day
Tomorrow will be .
, % of the Moon is Illuminated

Today's Extremes

State Highs State Lows

Community

WunderPhotos

Upload Photos

1,808,793 photos uploaded!

WunderBlogs® & News

Nearby

Air Quality

  Air Quality AQ Index Pollutant
Not available.

Snow Depth

Station Depth Elevation

Earthquake Activity

City Distance Mag. Time & Date
Minimum magnitude displayed is 2.5.

Coastal Water Temperatures

Place Temperature

Stations

Nearby Weather Stations

Station Location Temp. Windchill Dew Point Humidity Wind Precip. Elev Updated Type